sensor_id;sensor_type;location;lat;lon;timestamp;temperature;humidity
10692;DHT22;5396;50.950;6.988;2022-10-16T00:00:44;15.10;99.90
10692;DHT22;5396;50.950;6.988;2022-10-16T00:03:10;15.10;99.90
10692;DHT22;5396;50.950;6.988;2022-10-16T00:05:41;15.10;99.90
10692;DHT22;5396;50.950;6.988;2022-10-16T00:08:08;15.10;99.90
10692;DHT22;5396;50.950;6.988;2022-10-16T00:10:35;15.10;99.90
10692;DHT22;5396;50.950;6.988;2022-10-16T00:13:00;15.10;99.90
10692;DHT22;5396;50.950;6.988;2022-10-16T00:15:26;15.10;99.90
10692;DHT22;5396;50.950;6.988;2022-10-16T00:17:52;15.10;99.90
10692;DHT22;5396;50.950;6.988;2022-10-16T00:20:17;15.20;99.90
10692;DHT22;5396;50.950;6.988;2022-10-16T00:22:43;15.10;99.90
10692;DHT22;5396;50.950;6.988;2022-10-16T00:25:08;15.10;99.90
10692;DHT22;5396;50.950;6.988;2022-10-16T00:27:34;15.10;99.90
10692;DHT22;5396;50.950;6.988;2022-10-16T00:30:00;15.10;99.90
10692;DHT22;5396;50.950;6.988;2022-10-16T00:32:25;15.00;99.90
10692;DHT22;5396;50.950;6.988;2022-10-16T00:34:51;15.00;99.90
10692;DHT22;5396;50.950;6.988;2022-10-16T00:37:19;15.00;99.90
10692;DHT22;5396;50.950;6.988;2022-10-16T00:39:45;14.90;99.90
10692;DHT22;5396;50.950;6.988;2022-10-16T00:42:18;14.90;99.90
10692;DHT22;5396;50.950;6.988;2022-10-16T00:44:53;14.80;99.90
10692;DHT22;5396;50.950;6.988;2022-10-16T00:47:23;14.70;99.90
10692;DHT22;5396;50.950;6.988;2022-10-16T00:49:52;14.70;99.90
10692;DHT22;5396;50.950;6.988;2022-10-16T00:52:20;14.70;99.90
10692;DHT22;5396;50.950;6.988;2022-10-16T00:54:46;14.60;99.90
10692;DHT22;5396;50.950;6.988;2022-10-16T00:57:14;14.60;99.90
10692;DHT22;5396;50.950;6.988;2022-10-16T00:59:41;14.50;99.90
10692;DHT22;5396;50.950;6.988;2022-10-16T01:02:10;14.50;99.90
10692;DHT22;5396;50.950;6.988;2022-10-16T01:04:48;14.50;99.90
10692;DHT22;5396;50.950;6.988;2022-10-16T01:13:25;14.50;99.90
10692;DHT22;5396;50.950;6.988;2022-10-16T01:18:37;14.40;99.90
10692;DHT22;5396;50.950;6.988;2022-10-16T01:21:08;14.40;99.90
10692;DHT22;5396;50.950;6.988;2022-10-16T01:28:36;14.30;99.90
10692;DHT22;5396;50.950;6.988;2022-10-16T01:31:04;14.30;99.90
10692;DHT22;5396;50.950;6.988;2022-10-16T01:33:44;14.30;99.90
10692;DHT22;5396;50.950;6.988;2022-10-16T01:36:23;14.30;99.90
10692;DHT22;5396;50.950;6.988;2022-10-16T01:38:52;14.30;99.90
10692;DHT22;5396;50.950;6.988;2022-10-16T01:41:26;14.20;99.90
10692;DHT22;5396;50.950;6.988;2022-10-16T01:43:59;14.20;99.90
10692;DHT22;5396;50.950;6.988;2022-10-16T01:46:28;14.10;99.90
10692;DHT22;5396;50.950;6.988;2022-10-16T01:48:56;14.00;99.90
10692;DHT22;5396;50.950;6.988;2022-10-16T01:51:23;13.90;99.90
10692;DHT22;5396;50.950;6.988;2022-10-16T01:53:53;13.90;99.90
10692;DHT22;5396;50.950;6.988;2022-10-16T01:56:20;13.90;99.90
10692;DHT22;5396;50.950;6.988;2022-10-16T01:58:53;13.80;99.90
10692;DHT22;5396;50.950;6.988;2022-10-16T02:01:21;13.80;99.90
10692;DHT22;5396;50.950;6.988;2022-10-16T02:03:50;13.90;99.90
10692;DHT22;5396;50.950;6.988;2022-10-16T02:06:17;13.90;99.90
10692;DHT22;5396;50.950;6.988;2022-10-16T02:08:42;14.00;99.90
10692;DHT22;5396;50.950;6.988;2022-10-16T02:11:09;14.00;99.90
10692;DHT22;5396;50.950;6.988;2022-10-16T02:13:41;14.10;99.90
10692;DHT22;5396;50.950;6.988;2022-10-16T02:16:11;14.10;99.90
10692;DHT22;5396;50.950;6.988;2022-10-16T02:18:37;14.20;99.90
10692;DHT22;5396;50.950;6.988;2022-10-16T02:21:23;14.30;99.90
10692;DHT22;5396;50.950;6.988;2022-10-16T02:26:27;14.40;99.90
10692;DHT22;5396;50.950;6.988;2022-10-16T02:29:00;14.40;99.90
10692;DHT22;5396;50.950;6.988;2022-10-16T02:31:28;14.40;99.90
10692;DHT22;5396;50.950;6.988;2022-10-16T02:33:58;14.40;99.90
10692;DHT22;5396;50.950;6.988;2022-10-16T02:36:26;14.40;99.90
10692;DHT22;5396;50.950;6.988;2022-10-16T02:38:52;14.40;99.90
10692;DHT22;5396;50.950;6.988;2022-10-16T02:41:20;14.40;99.90
10692;DHT22;5396;50.950;6.988;2022-10-16T02:43:46;14.40;99.90
10692;DHT22;5396;50.950;6.988;2022-10-16T02:46:11;14.40;99.90
10692;DHT22;5396;50.950;6.988;2022-10-16T02:48:37;14.40;99.90
10692;DHT22;5396;50.950;6.988;2022-10-16T02:51:03;14.40;99.90
10692;DHT22;5396;50.950;6.988;2022-10-16T02:53:28;14.40;99.90
10692;DHT22;5396;50.950;6.988;2022-10-16T02:55:54;14.40;99.90
10692;DHT22;5396;50.950;6.988;2022-10-16T02:58:19;14.40;99.90
10692;DHT22;5396;50.950;6.988;2022-10-16T03:00:45;14.40;99.90
10692;DHT22;5396;50.950;6.988;2022-10-16T03:03:11;14.40;99.90
10692;DHT22;5396;50.950;6.988;2022-10-16T03:05:36;14.50;99.90
10692;DHT22;5396;50.950;6.988;2022-10-16T03:08:02;14.50;99.90
10692;DHT22;5396;50.950;6.988;2022-10-16T03:10:28;14.50;99.90
10692;DHT22;5396;50.950;6.988;2022-10-16T03:12:53;14.50;99.90
10692;DHT22;5396;50.950;6.988;2022-10-16T03:15:19;14.50;99.90
10692;DHT22;5396;50.950;6.988;2022-10-16T03:17:44;14.50;99.90
10692;DHT22;5396;50.950;6.988;2022-10-16T03:20:10;14.40;99.90
10692;DHT22;5396;50.950;6.988;2022-10-16T03:22:36;14.30;99.90
10692;DHT22;5396;50.950;6.988;2022-10-16T03:25:01;14.30;99.90
10692;DHT22;5396;50.950;6.988;2022-10-16T03:27:27;14.20;99.90
10692;DHT22;5396;50.950;6.988;2022-10-16T03:29:53;14.20;99.90
10692;DHT22;5396;50.950;6.988;2022-10-16T03:32:18;14.20;99.90
10692;DHT22;5396;50.950;6.988;2022-10-16T03:34:45;14.20;99.90
10692;DHT22;5396;50.950;6.988;2022-10-16T03:37:11;14.20;99.90
10692;DHT22;5396;50.950;6.988;2022-10-16T03:39:37;14.20;99.90
10692;DHT22;5396;50.950;6.988;2022-10-16T03:42:02;14.20;99.90
10692;DHT22;5396;50.950;6.988;2022-10-16T03:44:28;14.20;99.90
10692;DHT22;5396;50.950;6.988;2022-10-16T03:46:53;14.20;99.90
10692;DHT22;5396;50.950;6.988;2022-10-16T03:49:19;14.30;99.90
10692;DHT22;5396;50.950;6.988;2022-10-16T03:51:45;14.30;99.90
10692;DHT22;5396;50.950;6.988;2022-10-16T03:54:10;14.30;99.90
10692;DHT22;5396;50.950;6.988;2022-10-16T03:56:36;14.30;99.90
10692;DHT22;5396;50.950;6.988;2022-10-16T03:59:01;14.30;99.90
10692;DHT22;5396;50.950;6.988;2022-10-16T04:01:27;14.40;99.90
10692;DHT22;5396;50.950;6.988;2022-10-16T04:03:53;14.40;99.90
10692;DHT22;5396;50.950;6.988;2022-10-16T04:06:18;14.40;99.90
10692;DHT22;5396;50.950;6.988;2022-10-16T04:08:44;14.50;99.90
10692;DHT22;5396;50.950;6.988;2022-10-16T04:11:10;14.50;99.90
10692;DHT22;5396;50.950;6.988;2022-10-16T04:13:36;14.50;99.90
10692;DHT22;5396;50.950;6.988;2022-10-16T04:16:01;14.60;99.90
10692;DHT22;5396;50.950;6.988;2022-10-16T04:18:27;14.60;99.90
10692;DHT22;5396;50.950;6.988;2022-10-16T04:20:53;14.60;99.90
10692;DHT22;5396;50.950;6.988;2022-10-16T04:23:19;14.70;99.90
10692;DHT22;5396;50.950;6.988;2022-10-16T04:25:44;14.70;99.90
10692;DHT22;5396;50.950;6.988;2022-10-16T04:28:10;14.70;99.90
10692;DHT22;5396;50.950;6.988;2022-10-16T04:30:38;14.70;99.90
10692;DHT22;5396;50.950;6.988;2022-10-16T04:33:04;14.70;99.90
10692;DHT22;5396;50.950;6.988;2022-10-16T04:35:29;14.70;99.90
10692;DHT22;5396;50.950;6.988;2022-10-16T04:37:57;14.70;99.90
10692;DHT22;5396;50.950;6.988;2022-10-16T04:40:23;14.70;99.90
10692;DHT22;5396;50.950;6.988;2022-10-16T04:42:49;14.70;99.90
10692;DHT22;5396;50.950;6.988;2022-10-16T04:45:15;14.70;99.90
10692;DHT22;5396;50.950;6.988;2022-10-16T04:47:40;14.80;99.90
10692;DHT22;5396;50.950;6.988;2022-10-16T04:50:06;14.70;99.90
10692;DHT22;5396;50.950;6.988;2022-10-16T04:52:32;14.70;99.90
10692;DHT22;5396;50.950;6.988;2022-10-16T04:54:58;14.70;99.90
10692;DHT22;5396;50.950;6.988;2022-10-16T04:57:27;14.70;99.90
10692;DHT22;5396;50.950;6.988;2022-10-16T04:59:53;14.70;99.90
10692;DHT22;5396;50.950;6.988;2022-10-16T05:02:18;14.70;99.90
10692;DHT22;5396;50.950;6.988;2022-10-16T05:04:44;14.70;99.90
10692;DHT22;5396;50.950;6.988;2022-10-16T05:07:09;14.70;99.90
10692;DHT22;5396;50.950;6.988;2022-10-16T05:09:35;14.70;99.90
10692;DHT22;5396;50.950;6.988;2022-10-16T05:12:00;14.70;99.90
10692;DHT22;5396;50.950;6.988;2022-10-16T05:14:26;14.70;99.90
10692;DHT22;5396;50.950;6.988;2022-10-16T05:16:51;14.70;99.90
10692;DHT22;5396;50.950;6.988;2022-10-16T05:19:17;14.60;99.90
10692;DHT22;5396;50.950;6.988;2022-10-16T05:21:43;14.60;99.90
10692;DHT22;5396;50.950;6.988;2022-10-16T05:24:08;14.70;99.90
10692;DHT22;5396;50.950;6.988;2022-10-16T05:26:34;14.70;99.90
10692;DHT22;5396;50.950;6.988;2022-10-16T05:29:00;14.70;99.90
10692;DHT22;5396;50.950;6.988;2022-10-16T05:31:26;14.70;99.90
10692;DHT22;5396;50.950;6.988;2022-10-16T05:33:51;14.60;99.90
10692;DHT22;5396;50.950;6.988;2022-10-16T05:36:17;14.70;99.90
10692;DHT22;5396;50.950;6.988;2022-10-16T05:38:43;14.60;99.90
10692;DHT22;5396;50.950;6.988;2022-10-16T05:41:09;14.60;99.90
10692;DHT22;5396;50.950;6.988;2022-10-16T05:43:34;14.60;99.90
10692;DHT22;5396;50.950;6.988;2022-10-16T05:46:05;14.60;99.90
10692;DHT22;5396;50.950;6.988;2022-10-16T05:48:31;14.60;99.90
10692;DHT22;5396;50.950;6.988;2022-10-16T05:51:05;14.60;99.90
10692;DHT22;5396;50.950;6.988;2022-10-16T05:53:33;14.50;99.90
10692;DHT22;5396;50.950;6.988;2022-10-16T05:55:59;14.40;99.90
10692;DHT22;5396;50.950;6.988;2022-10-16T05:58:29;14.30;99.90
10692;DHT22;5396;50.950;6.988;2022-10-16T06:00:56;14.20;99.90
10692;DHT22;5396;50.950;6.988;2022-10-16T06:03:22;14.20;99.90
10692;DHT22;5396;50.950;6.988;2022-10-16T06:05:48;14.10;99.90
10692;DHT22;5396;50.950;6.988;2022-10-16T06:08:13;14.10;99.90
10692;DHT22;5396;50.950;6.988;2022-10-16T06:10:39;14.10;99.90
10692;DHT22;5396;50.950;6.988;2022-10-16T06:13:05;14.10;99.90
10692;DHT22;5396;50.950;6.988;2022-10-16T06:15:30;14.10;99.90
10692;DHT22;5396;50.950;6.988;2022-10-16T06:17:56;14.00;99.90
10692;DHT22;5396;50.950;6.988;2022-10-16T06:20:21;14.00;99.90
10692;DHT22;5396;50.950;6.988;2022-10-16T06:22:47;14.00;99.90
10692;DHT22;5396;50.950;6.988;2022-10-16T06:25:12;14.00;99.90
10692;DHT22;5396;50.950;6.988;2022-10-16T06:27:41;14.00;99.90
10692;DHT22;5396;50.950;6.988;2022-10-16T06:30:07;14.10;99.90
10692;DHT22;5396;50.950;6.988;2022-10-16T06:32:33;14.10;99.90
10692;DHT22;5396;50.950;6.988;2022-10-16T06:34:59;14.10;99.90
10692;DHT22;5396;50.950;6.988;2022-10-16T06:37:24;14.10;99.90
10692;DHT22;5396;50.950;6.988;2022-10-16T06:39:50;14.20;99.90
10692;DHT22;5396;50.950;6.988;2022-10-16T06:42:18;14.20;99.90
10692;DHT22;5396;50.950;6.988;2022-10-16T06:44:43;14.30;99.90
10692;DHT22;5396;50.950;6.988;2022-10-16T06:47:09;14.40;99.90
10692;DHT22;5396;50.950;6.988;2022-10-16T06:49:35;14.50;99.90
10692;DHT22;5396;50.950;6.988;2022-10-16T06:52:01;14.50;99.90
10692;DHT22;5396;50.950;6.988;2022-10-16T06:54:27;14.60;99.90
10692;DHT22;5396;50.950;6.988;2022-10-16T06:56:53;14.70;99.90
10692;DHT22;5396;50.950;6.988;2022-10-16T06:59:23;14.80;99.90
10692;DHT22;5396;50.950;6.988;2022-10-16T07:01:48;14.90;99.90
10692;DHT22;5396;50.950;6.988;2022-10-16T07:04:14;14.90;99.90
10692;DHT22;5396;50.950;6.988;2022-10-16T07:06:39;14.90;99.90
10692;DHT22;5396;50.950;6.988;2022-10-16T07:09:08;15.10;99.90
10692;DHT22;5396;50.950;6.988;2022-10-16T07:11:34;15.10;99.90
10692;DHT22;5396;50.950;6.988;2022-10-16T07:14:01;15.20;99.90
10692;DHT22;5396;50.950;6.988;2022-10-16T07:16:29;15.20;99.90
10692;DHT22;5396;50.950;6.988;2022-10-16T07:18:56;15.30;99.90
10692;DHT22;5396;50.950;6.988;2022-10-16T07:21:27;15.30;99.90
10692;DHT22;5396;50.950;6.988;2022-10-16T07:23:56;15.30;99.90
10692;DHT22;5396;50.950;6.988;2022-10-16T07:26:22;15.40;99.90
10692;DHT22;5396;50.950;6.988;2022-10-16T07:28:49;15.40;99.90
10692;DHT22;5396;50.950;6.988;2022-10-16T07:31:16;15.40;99.90
10692;DHT22;5396;50.950;6.988;2022-10-16T07:33:43;15.50;99.90
10692;DHT22;5396;50.950;6.988;2022-10-16T07:36:10;15.50;99.90
10692;DHT22;5396;50.950;6.988;2022-10-16T07:38:36;15.60;99.90
10692;DHT22;5396;50.950;6.988;2022-10-16T07:41:05;15.50;99.90
10692;DHT22;5396;50.950;6.988;2022-10-16T07:43:31;15.50;99.90
10692;DHT22;5396;50.950;6.988;2022-10-16T07:45:57;15.50;99.90
10692;DHT22;5396;50.950;6.988;2022-10-16T07:48:25;15.40;99.90
10692;DHT22;5396;50.950;6.988;2022-10-16T07:50:51;15.40;99.90
10692;DHT22;5396;50.950;6.988;2022-10-16T07:53:17;15.30;99.90
10692;DHT22;5396;50.950;6.988;2022-10-16T07:55:42;15.30;99.90
10692;DHT22;5396;50.950;6.988;2022-10-16T07:58:08;15.30;99.90
10692;DHT22;5396;50.950;6.988;2022-10-16T08:00:36;15.30;99.90
10692;DHT22;5396;50.950;6.988;2022-10-16T08:03:02;15.30;99.90
10692;DHT22;5396;50.950;6.988;2022-10-16T08:05:28;15.40;99.90
10692;DHT22;5396;50.950;6.988;2022-10-16T08:07:54;15.50;99.90
10692;DHT22;5396;50.950;6.988;2022-10-16T08:10:21;15.50;99.90
10692;DHT22;5396;50.950;6.988;2022-10-16T08:12:47;15.50;99.90
10692;DHT22;5396;50.950;6.988;2022-10-16T08:15:13;15.50;99.90
10692;DHT22;5396;50.950;6.988;2022-10-16T08:17:39;15.60;99.90
10692;DHT22;5396;50.950;6.988;2022-10-16T08:20:05;15.70;99.90
10692;DHT22;5396;50.950;6.988;2022-10-16T08:22:30;15.70;99.90
10692;DHT22;5396;50.950;6.988;2022-10-16T08:24:56;15.80;99.90
10692;DHT22;5396;50.950;6.988;2022-10-16T08:27:22;16.00;99.90
10692;DHT22;5396;50.950;6.988;2022-10-16T08:29:49;16.10;99.90
10692;DHT22;5396;50.950;6.988;2022-10-16T08:32:14;16.20;99.90
10692;DHT22;5396;50.950;6.988;2022-10-16T08:34:40;16.20;99.90
10692;DHT22;5396;50.950;6.988;2022-10-16T08:37:06;16.30;99.90
10692;DHT22;5396;50.950;6.988;2022-10-16T08:39:33;16.40;99.90
10692;DHT22;5396;50.950;6.988;2022-10-16T08:42:23;16.40;99.90
10692;DHT22;5396;50.950;6.988;2022-10-16T08:50:29;16.50;99.90
10692;DHT22;5396;50.950;6.988;2022-10-16T08:52:56;16.50;99.90
10692;DHT22;5396;50.950;6.988;2022-10-16T08:58:12;16.60;99.90
10692;DHT22;5396;50.950;6.988;2022-10-16T09:00:39;16.60;99.90
10692;DHT22;5396;50.950;6.988;2022-10-16T09:03:27;16.70;99.90
10692;DHT22;5396;50.950;6.988;2022-10-16T09:14:40;17.00;99.90
10692;DHT22;5396;50.950;6.988;2022-10-16T09:17:18;17.00;99.90
10692;DHT22;5396;50.950;6.988;2022-10-16T09:19:53;17.10;99.90
10692;DHT22;5396;50.950;6.988;2022-10-16T09:22:25;17.20;99.90
10692;DHT22;5396;50.950;6.988;2022-10-16T09:24:52;17.20;99.90
10692;DHT22;5396;50.950;6.988;2022-10-16T09:27:18;17.20;99.90
10692;DHT22;5396;50.950;6.988;2022-10-16T09:29:44;17.30;99.90
10692;DHT22;5396;50.950;6.988;2022-10-16T09:32:18;17.30;99.90
10692;DHT22;5396;50.950;6.988;2022-10-16T09:34:48;17.30;99.90
10692;DHT22;5396;50.950;6.988;2022-10-16T09:37:18;17.30;99.90
10692;DHT22;5396;50.950;6.988;2022-10-16T09:39:46;17.40;99.90
10692;DHT22;5396;50.950;6.988;2022-10-16T09:42:18;17.40;99.90
10692;DHT22;5396;50.950;6.988;2022-10-16T09:44:51;17.40;99.90
10692;DHT22;5396;50.950;6.988;2022-10-16T09:47:28;17.50;99.90
10692;DHT22;5396;50.950;6.988;2022-10-16T09:50:03;17.50;99.90
10692;DHT22;5396;50.950;6.988;2022-10-16T09:52:32;17.60;99.90
10692;DHT22;5396;50.950;6.988;2022-10-16T09:55:00;17.60;99.90
10692;DHT22;5396;50.950;6.988;2022-10-16T09:57:26;17.70;99.90
10692;DHT22;5396;50.950;6.988;2022-10-16T09:59:57;17.70;99.90
10692;DHT22;5396;50.950;6.988;2022-10-16T10:02:36;17.80;99.90
10692;DHT22;5396;50.950;6.988;2022-10-16T10:05:17;17.80;99.90
10692;DHT22;5396;50.950;6.988;2022-10-16T10:07:43;17.90;99.90
10692;DHT22;5396;50.950;6.988;2022-10-16T10:10:21;17.90;99.90
10692;DHT22;5396;50.950;6.988;2022-10-16T10:12:47;18.00;99.90
10692;DHT22;5396;50.950;6.988;2022-10-16T10:15:14;18.00;99.90
10692;DHT22;5396;50.950;6.988;2022-10-16T10:17:57;18.00;99.90
10692;DHT22;5396;50.950;6.988;2022-10-16T10:22:50;18.00;99.90
10692;DHT22;5396;50.950;6.988;2022-10-16T10:31:03;18.40;99.90
10692;DHT22;5396;50.950;6.988;2022-10-16T10:33:46;18.40;99.90
10692;DHT22;5396;50.950;6.988;2022-10-16T10:44:06;18.50;99.90
10692;DHT22;5396;50.950;6.988;2022-10-16T10:46:41;18.60;99.90
10692;DHT22;5396;50.950;6.988;2022-10-16T10:49:19;18.70;99.90
10692;DHT22;5396;50.950;6.988;2022-10-16T10:59:54;19.00;99.90
10692;DHT22;5396;50.950;6.988;2022-10-16T11:02:43;19.00;99.90
10692;DHT22;5396;50.950;6.988;2022-10-16T11:05:46;18.90;99.90
10692;DHT22;5396;50.950;6.988;2022-10-16T11:11:04;19.00;99.90
10692;DHT22;5396;50.950;6.988;2022-10-16T11:16:25;19.20;99.90
10692;DHT22;5396;50.950;6.988;2022-10-16T11:19:03;19.30;99.90
10692;DHT22;5396;50.950;6.988;2022-10-16T11:21:35;19.20;99.90
10692;DHT22;5396;50.950;6.988;2022-10-16T11:24:20;19.20;99.90
10692;DHT22;5396;50.950;6.988;2022-10-16T11:26:48;19.30;99.90
10692;DHT22;5396;50.950;6.988;2022-10-16T11:29:24;19.30;99.90
10692;DHT22;5396;50.950;6.988;2022-10-16T11:32:01;19.50;99.90
10692;DHT22;5396;50.950;6.988;2022-10-16T11:34:45;19.60;99.90
10692;DHT22;5396;50.950;6.988;2022-10-16T11:37:19;19.60;99.90
10692;DHT22;5396;50.950;6.988;2022-10-16T11:39:46;19.60;99.90
10692;DHT22;5396;50.950;6.988;2022-10-16T11:42:40;19.70;99.90
10692;DHT22;5396;50.950;6.988;2022-10-16T11:45:20;19.80;99.90
10692;DHT22;5396;50.950;6.988;2022-10-16T11:47:58;19.70;99.90
10692;DHT22;5396;50.950;6.988;2022-10-16T11:53:38;20.00;99.90
10692;DHT22;5396;50.950;6.988;2022-10-16T11:56:06;20.20;99.90
10692;DHT22;5396;50.950;6.988;2022-10-16T12:01:18;20.20;99.90
10692;DHT22;5396;50.950;6.988;2022-10-16T12:06:34;20.30;99.90
10692;DHT22;5396;50.950;6.988;2022-10-16T12:09:01;20.40;99.90
10692;DHT22;5396;50.950;6.988;2022-10-16T12:11:36;20.30;99.90
10692;DHT22;5396;50.950;6.988;2022-10-16T12:14:07;20.30;99.90
10692;DHT22;5396;50.950;6.988;2022-10-16T12:19:43;20.30;99.90
10692;DHT22;5396;50.950;6.988;2022-10-16T12:22:18;20.20;99.90
10692;DHT22;5396;50.950;6.988;2022-10-16T12:24:43;20.20;99.90
10692;DHT22;5396;50.950;6.988;2022-10-16T12:27:38;20.40;99.90
10692;DHT22;5396;50.950;6.988;2022-10-16T12:30:05;20.50;99.90
10692;DHT22;5396;50.950;6.988;2022-10-16T12:32:33;20.70;99.90
10692;DHT22;5396;50.950;6.988;2022-10-16T12:35:01;20.90;99.90
10692;DHT22;5396;50.950;6.988;2022-10-16T12:37:35;21.00;99.90
10692;DHT22;5396;50.950;6.988;2022-10-16T12:40:26;21.00;99.90
10692;DHT22;5396;50.950;6.988;2022-10-16T12:42:53;21.20;99.90
10692;DHT22;5396;50.950;6.988;2022-10-16T12:45:30;21.40;99.90
10692;DHT22;5396;50.950;6.988;2022-10-16T12:47:57;21.60;99.90
10692;DHT22;5396;50.950;6.988;2022-10-16T12:50:32;21.70;99.90
10692;DHT22;5396;50.950;6.988;2022-10-16T12:52:59;21.70;99.90
10692;DHT22;5396;50.950;6.988;2022-10-16T12:55:26;21.70;99.90
10692;DHT22;5396;50.950;6.988;2022-10-16T13:03:31;21.30;99.90
10692;DHT22;5396;50.950;6.988;2022-10-16T13:22:32;20.60;99.90
10692;DHT22;5396;50.950;6.988;2022-10-16T13:25:13;20.50;99.90
10692;DHT22;5396;50.950;6.988;2022-10-16T13:28:01;20.40;99.90
10692;DHT22;5396;50.950;6.988;2022-10-16T13:30:41;20.30;99.90
10692;DHT22;5396;50.950;6.988;2022-10-16T13:35:51;20.40;99.90
10692;DHT22;5396;50.950;6.988;2022-10-16T13:38:22;20.50;99.90
10692;DHT22;5396;50.950;6.988;2022-10-16T13:40:59;20.50;99.90
10692;DHT22;5396;50.950;6.988;2022-10-16T13:46:03;20.60;99.90
10692;DHT22;5396;50.950;6.988;2022-10-16T13:48:30;20.80;99.90
10692;DHT22;5396;50.950;6.988;2022-10-16T13:51:00;21.40;99.90
10692;DHT22;5396;50.950;6.988;2022-10-16T13:53:26;21.50;99.90
10692;DHT22;5396;50.950;6.988;2022-10-16T13:55:51;21.50;99.90
10692;DHT22;5396;50.950;6.988;2022-10-16T13:58:17;21.50;99.90
10692;DHT22;5396;50.950;6.988;2022-10-16T14:00:57;21.50;99.90
10692;DHT22;5396;50.950;6.988;2022-10-16T14:03:24;21.70;99.90
10692;DHT22;5396;50.950;6.988;2022-10-16T14:05:53;21.60;99.90
10692;DHT22;5396;50.950;6.988;2022-10-16T14:08:19;21.40;99.90
10692;DHT22;5396;50.950;6.988;2022-10-16T14:10:49;21.30;99.90
10692;DHT22;5396;50.950;6.988;2022-10-16T14:16:08;20.90;99.90
10692;DHT22;5396;50.950;6.988;2022-10-16T14:18:35;20.70;99.90
10692;DHT22;5396;50.950;6.988;2022-10-16T14:21:04;20.50;99.90
10692;DHT22;5396;50.950;6.988;2022-10-16T14:23:32;20.60;99.90
10692;DHT22;5396;50.950;6.988;2022-10-16T14:28:39;20.50;99.90
10692;DHT22;5396;50.950;6.988;2022-10-16T14:33:50;20.40;99.90
10692;DHT22;5396;50.950;6.988;2022-10-16T14:36:16;20.50;99.90
10692;DHT22;5396;50.950;6.988;2022-10-16T14:39:00;20.50;99.90
10692;DHT22;5396;50.950;6.988;2022-10-16T14:41:28;20.50;99.90
10692;DHT22;5396;50.950;6.988;2022-10-16T14:43:56;20.50;99.90
10692;DHT22;5396;50.950;6.988;2022-10-16T14:46:31;20.50;99.90
10692;DHT22;5396;50.950;6.988;2022-10-16T14:49:14;20.50;99.90
10692;DHT22;5396;50.950;6.988;2022-10-16T14:51:42;20.50;99.90
10692;DHT22;5396;50.950;6.988;2022-10-16T14:54:10;20.50;99.90
10692;DHT22;5396;50.950;6.988;2022-10-16T14:59:35;20.60;99.90
10692;DHT22;5396;50.950;6.988;2022-10-16T15:01:59;20.50;99.90
10692;DHT22;5396;50.950;6.988;2022-10-16T15:04:26;20.40;99.90
10692;DHT22;5396;50.950;6.988;2022-10-16T15:06:51;20.30;99.90
10692;DHT22;5396;50.950;6.988;2022-10-16T15:09:17;20.20;99.90
10692;DHT22;5396;50.950;6.988;2022-10-16T15:11:43;20.10;99.90
10692;DHT22;5396;50.950;6.988;2022-10-16T15:14:12;19.90;99.90
10692;DHT22;5396;50.950;6.988;2022-10-16T15:16:39;19.90;99.90
10692;DHT22;5396;50.950;6.988;2022-10-16T15:19:04;19.80;99.90
10692;DHT22;5396;50.950;6.988;2022-10-16T15:21:32;19.70;99.90
10692;DHT22;5396;50.950;6.988;2022-10-16T15:23:59;19.70;99.90
10692;DHT22;5396;50.950;6.988;2022-10-16T15:26:26;19.60;99.90
10692;DHT22;5396;50.950;6.988;2022-10-16T15:28:52;19.60;99.90
10692;DHT22;5396;50.950;6.988;2022-10-16T15:31:18;19.50;99.90
10692;DHT22;5396;50.950;6.988;2022-10-16T15:33:44;19.50;99.90
10692;DHT22;5396;50.950;6.988;2022-10-16T15:36:13;19.50;99.90
10692;DHT22;5396;50.950;6.988;2022-10-16T15:38:38;19.40;99.90
10692;DHT22;5396;50.950;6.988;2022-10-16T15:41:04;19.40;99.90
10692;DHT22;5396;50.950;6.988;2022-10-16T15:43:29;19.40;99.90
10692;DHT22;5396;50.950;6.988;2022-10-16T15:46:04;19.40;99.90
10692;DHT22;5396;50.950;6.988;2022-10-16T15:48:31;19.30;99.90
10692;DHT22;5396;50.950;6.988;2022-10-16T15:50:57;19.30;99.90
10692;DHT22;5396;50.950;6.988;2022-10-16T15:53:22;19.30;99.90
10692;DHT22;5396;50.950;6.988;2022-10-16T15:55:48;19.20;99.90
10692;DHT22;5396;50.950;6.988;2022-10-16T15:58:14;19.20;99.90
10692;DHT22;5396;50.950;6.988;2022-10-16T16:00:40;19.10;99.90
10692;DHT22;5396;50.950;6.988;2022-10-16T16:03:05;19.10;99.90
10692;DHT22;5396;50.950;6.988;2022-10-16T16:05:31;19.00;99.90
10692;DHT22;5396;50.950;6.988;2022-10-16T16:07:58;19.00;99.90
10692;DHT22;5396;50.950;6.988;2022-10-16T16:10:24;19.00;99.90
10692;DHT22;5396;50.950;6.988;2022-10-16T16:12:50;19.00;99.90
10692;DHT22;5396;50.950;6.988;2022-10-16T16:15:19;18.90;99.90
10692;DHT22;5396;50.950;6.988;2022-10-16T16:17:45;18.90;99.90
10692;DHT22;5396;50.950;6.988;2022-10-16T16:20:11;18.90;99.90
10692;DHT22;5396;50.950;6.988;2022-10-16T16:22:36;18.80;99.90
10692;DHT22;5396;50.950;6.988;2022-10-16T16:25:02;18.80;99.90
10692;DHT22;5396;50.950;6.988;2022-10-16T16:27:28;18.80;99.90
10692;DHT22;5396;50.950;6.988;2022-10-16T16:29:55;18.80;99.90
10692;DHT22;5396;50.950;6.988;2022-10-16T16:32:21;18.70;99.90
10692;DHT22;5396;50.950;6.988;2022-10-16T16:34:47;18.70;99.90
10692;DHT22;5396;50.950;6.988;2022-10-16T16:37:13;18.60;99.90
10692;DHT22;5396;50.950;6.988;2022-10-16T16:39:38;18.60;99.90
10692;DHT22;5396;50.950;6.988;2022-10-16T16:42:04;18.50;99.90
10692;DHT22;5396;50.950;6.988;2022-10-16T16:44:31;18.50;99.90
10692;DHT22;5396;50.950;6.988;2022-10-16T16:46:57;18.50;99.90
10692;DHT22;5396;50.950;6.988;2022-10-16T16:49:23;18.50;99.90
10692;DHT22;5396;50.950;6.988;2022-10-16T16:51:48;18.50;99.90
10692;DHT22;5396;50.950;6.988;2022-10-16T16:54:14;18.40;99.90
10692;DHT22;5396;50.950;6.988;2022-10-16T16:56:41;18.40;99.90
10692;DHT22;5396;50.950;6.988;2022-10-16T16:59:13;18.40;99.90
10692;DHT22;5396;50.950;6.988;2022-10-16T17:01:39;18.30;99.90
10692;DHT22;5396;50.950;6.988;2022-10-16T17:04:05;18.30;99.90
10692;DHT22;5396;50.950;6.988;2022-10-16T17:06:31;18.20;99.90
10692;DHT22;5396;50.950;6.988;2022-10-16T17:08:58;18.20;99.90
10692;DHT22;5396;50.950;6.988;2022-10-16T17:11:25;18.20;99.90
10692;DHT22;5396;50.950;6.988;2022-10-16T17:13:53;18.20;99.90
10692;DHT22;5396;50.950;6.988;2022-10-16T17:16:20;18.20;99.90
10692;DHT22;5396;50.950;6.988;2022-10-16T17:18:46;18.20;99.90
10692;DHT22;5396;50.950;6.988;2022-10-16T17:21:12;18.20;99.90
10692;DHT22;5396;50.950;6.988;2022-10-16T17:23:38;18.10;99.90
10692;DHT22;5396;50.950;6.988;2022-10-16T17:26:06;18.00;99.90
10692;DHT22;5396;50.950;6.988;2022-10-16T17:28:32;18.00;99.90
10692;DHT22;5396;50.950;6.988;2022-10-16T17:31:08;18.00;99.90
10692;DHT22;5396;50.950;6.988;2022-10-16T17:33:33;18.00;99.90
10692;DHT22;5396;50.950;6.988;2022-10-16T17:35:59;18.00;99.90
10692;DHT22;5396;50.950;6.988;2022-10-16T17:38:25;17.90;99.90
10692;DHT22;5396;50.950;6.988;2022-10-16T17:40:50;17.90;99.90
10692;DHT22;5396;50.950;6.988;2022-10-16T17:43:16;17.90;99.90
10692;DHT22;5396;50.950;6.988;2022-10-16T17:45:41;17.90;99.90